Flight Track Log - Related Links

Times and Time Zones

All times are in EDT time to prevent confusion due to time zone crossing. See the SWA1496 flight status page for this flight to view local times or setup timezone preferences in your user account.

Time Position Orientation Groundspeed Altitude Reporting Facility
EDT Latitude Longitude Course Direction KTS MPH feet Rate Location/Type
Sat 10:26:18 PM 39.8167 -104.8500 258° West 279 321 9,500  Level Denver TRACON
Sat 10:27:05 PM 39.7942 -104.9253 249° West 286 329 12,000 3,477 Climbing Denver Center
Sat 10:28:05 PM 39.7631 -105.0389 250° West 331 381 15,700 3,273 Climbing Denver Center
Sat 10:29:06 PM 39.7225 -105.1497 245° Southwest 342 394 18,600 2,951 Climbing Denver Center
Sat 10:30:07 PM 39.6792 -105.2700 245° Southwest 367 422 21,700 2,754 Climbing Denver Center
Sat 10:31:08 PM 39.6308 -105.4039 245° Southwest 381 438 24,200 2,115 Climbing Denver Center
Sat 10:32:09 PM 39.5878 -105.5217 245° Southwest 403 464 26,000 1,082 Climbing Denver Center
Sat 10:33:10 PM 39.5408 -105.6544 245° Southwest 406 467 26,400 1,377 Climbing Denver Center
Sat 10:34:11 PM 39.4942 -105.7889 246° West 411 473 28,800 1,785 Climbing Denver Center
Sat 10:35:11 PM 39.4464 -105.9261 246° West 419 482 30,000 2,231 Climbing Denver Center
Sat 10:36:12 PM 39.3789 -106.0997 243° Southwest 449 517 33,300 2,361 Climbing Denver Center
Sat 10:37:13 PM 39.3375 -106.2161 245° Southwest 419 482 34,800 1,328 Climbing Denver Center
Sat 10:38:14 PM 39.2769 -106.3744 244° Southwest 433 498 36,000 1,033 Climbing Denver Center
Sat 10:39:15 PM 39.2233 -106.5142 244° Southwest 450 518 36,900 1,033 Climbing Denver Center
Sat 10:40:16 PM 39.1694 -106.6572 244° Southwest 462 532 38,100 1,525 Climbing Denver Center
Sat 10:41:17 PM 39.1058 -106.8203 243° Southwest 458 527 40,000 942 Climbing Denver Center
Sat 10:42:17 PM 39.0542 -106.9564 244° Southwest 448 516 40,000  Level Denver Center
Sat 10:43:18 PM 39.0011 -107.0925 243° Southwest 444 511 40,000  Level Denver Center
Sat 10:44:19 PM 38.9411 -107.2494 244° Southwest 439 505 40,000  Level Denver Center
Sat 10:45:20 PM 38.8883 -107.3831 243° Southwest 439 505 40,000  Level Denver Center
Sat 10:46:20 PM 38.8381 -107.5156 244° Southwest 433 498 40,000  Level Denver Center
Sat 10:47:21 PM 38.7772 -107.6714 243° Southwest 436 502 40,000  Level Denver Center
Sat 10:48:22 PM 38.7236 -107.8050 243° Southwest 438 504 40,000  Level Denver Center
Sat 10:49:22 PM 38.6717 -107.9375 243° Southwest 435 501 40,000  Level Denver Center
Sat 10:50:23 PM 38.6100 -108.0928 243° Southwest 437 503 40,000  Level Denver Center
Sat 10:51:24 PM 38.5558 -108.2264 243° Southwest 439 505 40,000  Level Denver Center
Sat 10:52:24 PM 38.5025 -108.3619 243° Southwest 443 510 40,000  Level Denver Center
Sat 10:53:25 PM 38.4394 -108.5175 243° Southwest 442 509 40,000  Level Denver Center
Sat 10:54:26 PM 38.3853 -108.6519 243° Southwest 441 507 40,000  Level Denver Center
Sat 10:55:26 PM 38.3311 -108.7858 243° Southwest 444 511 40,000  Level Denver Center
Sat 10:56:27 PM 38.2675 -108.9406 242° Southwest 441 507 40,000  Level Denver Center
Sat 10:57:28 PM 38.2131 -109.0714 242° Southwest 440 506 40,000  Level Denver Center
Sat 10:58:28 PM 38.1583 -109.2031 242° Southwest 439 505 40,000  Level Denver Center
Sat 10:59:29 PM 38.0942 -109.3564 242° Southwest 440 506 40,000  Level Denver Center
Sat 11:00:30 PM 38.0394 -109.4892 242° Southwest 443 510 40,000  Level Denver Center
Sat 11:01:30 PM 37.9794 -109.6328 242° Southwest 444 511 40,000  Level Denver Center
Sat 11:02:31 PM 37.9236 -109.7661 242° Southwest 448 516 40,000  Level Denver Center
Sat 11:03:32 PM 37.8681 -109.8972 242° Southwest 444 511 40,000  Level Denver Center
Sat 11:04:32 PM 37.8031 -110.0519 242° Southwest 445 512 40,000  Level Denver Center
Sat 11:05:33 PM 37.7469 -110.1833 242° Southwest 445 512 40,000  Level Denver Center
Sat 11:06:33 PM 37.6917 -110.3131 242° Southwest 440 506 40,000  Level Denver Center
Sat 11:07:34 PM 37.6253 -110.4650 241° Southwest 442 509 40,000  Level Denver Center
Sat 11:08:47 PM 37.5622 -110.6125 242° Southwest 440 506 40,000  Level Denver Center
Sat 11:09:47 PM 37.5042 -110.7469 241° Southwest 439 505 40,000  Level Denver Center
Sat 11:10:48 PM 37.4450 -110.8825 241° Southwest 441 507 40,000  Level Denver Center
Sat 11:11:49 PM 37.3869 -111.0172 242° Southwest 438 504 40,000  Level Denver Center
Sat 11:12:49 PM 37.3275 -111.1500 241° Southwest 436 502 40,000  Level Denver Center
Sat 11:13:50 PM 37.2697 -111.2847 242° Southwest 437 503 40,000  Level Denver Center
Sat 11:14:50 PM 37.2100 -111.4172 241° Southwest 436 502 40,000  Level Denver Center
Sat 11:15:51 PM 37.1517 -111.5489 241° Southwest 433 498 40,000  Level Denver Center
Sat 11:16:21 PM 37.1147 -111.6292 240° Southwest 433 498 40,000  Level Los Angeles Center
Sat 11:17:23 PM 37.0569 -111.7608 241° Southwest 432 497 40,000  Level Los Angeles Center
Sat 11:18:24 PM 36.9972 -111.8936 241° Southwest 435 501 40,000  Level Los Angeles Center
Sat 11:19:25 PM 36.9381 -112.0250 241° Southwest 434 499 40,000  Level Los Angeles Center
Sat 11:20:26 PM 36.8783 -112.1561 240° Southwest 434 499 40,000  Level Los Angeles Center
Sat 11:21:27 PM 36.8189 -112.2881 241° Southwest 435 501 40,000  Level Los Angeles Center
Sat 11:22:28 PM 36.7589 -112.4181 240° Southwest 433 498 40,000  Level Los Angeles Center
Sat 11:23:29 PM 36.6997 -112.5494 241° Southwest 433 498 40,000  Level Los Angeles Center
Sat 11:24:30 PM 36.6269 -112.7067 240° Southwest 436 502 40,000  Level Los Angeles Center
Sat 11:25:31 PM 36.5664 -112.8381 240° Southwest 436 502 40,000  Level Los Angeles Center
Sat 11:26:32 PM 36.5056 -112.9689 240° Southwest 437 503 40,000  Level Los Angeles Center
Sat 11:27:33 PM 36.4456 -113.0983 240° Southwest 434 499 40,000  Level Los Angeles Center
Sat 11:28:34 PM 36.3847 -113.2281 240° Southwest 435 501 40,000  Level Los Angeles Center
Sat 11:29:35 PM 36.3206 -113.3658 240° Southwest 431 496 40,000  Level Los Angeles Center
Sat 11:30:36 PM 36.2597 -113.4922 239° Southwest 428 493 40,000  Level Los Angeles Center
Sat 11:31:37 PM 36.2014 -113.6183 240° Southwest 424 488 40,000  Level Los Angeles Center
Sat 11:32:38 PM 36.1414 -113.7442 239° Southwest 424 488 40,000  Level Los Angeles Center
Sat 11:33:39 PM 36.0822 -113.8681 239° Southwest 420 483 40,000  Level Los Angeles Center
Sat 11:34:40 PM 36.0217 -113.9931 239° Southwest 421 484 40,000  Level Los Angeles Center
Sat 11:35:41 PM 35.9619 -114.1175 239° Southwest 422 486 40,000  Level Los Angeles Center
Sat 11:36:42 PM 35.9011 -114.2417 239° Southwest 422 486 40,000  Level Los Angeles Center
Sat 11:37:43 PM 35.8433 -114.3672 240° Southwest 421 484 40,000  Level Los Angeles Center
Sat 11:38:44 PM 35.7817 -114.4914 239° Southwest 423 487 40,000  Level Los Angeles Center
Sat 11:39:45 PM 35.7142 -114.6100 235° Southwest 422 486 40,000  Level Los Angeles Center
Sat 11:40:46 PM 35.6481 -114.7289 236° Southwest 422 486 40,000  Level Los Angeles Center
Sat 11:41:47 PM 35.5814 -114.8461 235° Southwest 419 482 40,000  Level Los Angeles Center
Sat 11:42:48 PM 35.5164 -114.9628 236° Southwest 415 478 40,000  Level Los Angeles Center
Sat 11:43:48 PM 35.4519 -115.0789 236° Southwest 411 473 40,000  Level Los Angeles Center
Sat 11:44:49 PM 35.3853 -115.1936 235° Southwest 412 474 40,000  Level Los Angeles Center
Sat 11:45:50 PM 35.3075 -115.3317 235° Southwest 409 471 40,000  Level Los Angeles Center
Sat 11:46:51 PM 35.2428 -115.4444 235° Southwest 405 466 40,000  Level Los Angeles Center
Sat 11:47:52 PM 35.1894 -115.5386 235° Southwest 406 467 40,000  Level Los Angeles Center
Sat 11:48:53 PM 35.1239 -115.6514 235° Southwest 407 468 40,000 -1,082 Level Los Angeles Center
Sat 11:49:54 PM 35.0475 -115.7844 235° Southwest 401 461 37,800 -2,149 Descending Los Angeles Center
Sat 11:51:07 PM 34.9847 -115.8942 235° Southwest 397 457 35,200 -2,418 Descending Los Angeles Center
Sat 11:52:08 PM 34.9008 -116.0378 235° Southwest 426 490 32,400 -2,459 Descending Los Angeles Center
Sat 11:53:09 PM 34.8333 -116.1528 234° Southwest 421 484 30,200 -2,115 Descending Los Angeles Center
Sat 11:54:10 PM 34.7675 -116.2656 235° Southwest 412 474 28,100 -2,066 Descending Los Angeles Center
Sat 11:55:11 PM 34.7031 -116.3733 234° Southwest 399 459 26,000 -2,033 Descending Los Angeles Center
Sat 11:56:11 PM 34.6425 -116.4764 234° Southwest 378 435 24,000 -1,934 Descending Los Angeles Center
Sat 11:57:12 PM 34.5836 -116.5756 234° Southwest 363 418 22,100 -1,820 Descending Los Angeles Center
Sat 11:58:13 PM 34.5292 -116.6686 235° Southwest 343 395 20,300 -1,721 Descending Los Angeles Center
Sat 11:59:14 PM 34.4758 -116.7594 235° Southwest 330 380 18,600 -1,672 Descending Los Angeles Center
Sun 12:00:15 AM 34.4242 -116.8450 234° Southwest 317 365 16,900 -1,721 Descending Los Angeles Center
Sun 12:01:16 AM 34.3733 -116.9306 234° Southwest 314 361 15,100 -1,721 Descending Los Angeles Center
Sun 12:02:17 AM 34.3231 -117.0142 234° Southwest 309 356 13,400 -1,686 Descending Los Angeles Center
Sun 12:03:17 AM 34.2747 -117.0947 234° Southwest 298 343 11,700 -1,835 Descending Los Angeles Center
Sun 12:04:18 AM 34.2108 -117.1772 227° Southwest 290 334 9,700 -1,574 Descending Los Angeles Center
Sun 12:05:19 AM 34.1583 -117.2400 225° Southwest 270 311 8,500 -1,340 Descending Los Angeles Center
Sun 12:06:01 AM 34.1167 -117.2833 221° Southwest 238 274 7,400 -1,529 Descending Southern California TRACON
Sun 12:07:01 AM 34.1000 -117.3333 248° West 200 230 5,900 -1,537 Descending Southern California TRACON
Sun 12:08:02 AM 34.0833 -117.4000 253° West 180 207 4,300 -1,438 Descending Southern California TRACON
Sun 12:09:02 AM 34.0667 -117.4500 248° West 164 189 3,000 -950 Descending Southern California TRACON
Sun 12:10:02 AM 34.0500 -117.5000 248° West 128 147 2,400 -661 Descending Southern California TRACON
Sun 12:11:09 AM 34.0500 -117.5500 270° West 130 150 1,600 -709 Descending Southern California TRACON
Sun 12:12:09 AM 34.0667 -117.5833 301° West 191 220 900 -700 Descending Southern California TRACON
Sun 12:14:00 AM 34.0500 -117.6000 270° West  Level FlightAware Approximate
Sun 12:21:00 AM 34.0560 -117.6012 270° West  Level Estimated
Sun 12:22:00 AM 34.0500 -117.6000 270° West  Level FlightAware Approximate
Sun 12:23:00 AM 34.0560 -117.6012 270° West  Level Estimated
Sun 12:24:00 AM 34.0500 -117.6000 270° West  Level FlightAware Approximate

Login

Don't have an account? Register now (free) for customized features, flight alerts, and more!